sensor_id;sensor_type;location;lat;lon;timestamp;temperature;humidity
70079;DHT22;57451;52.496;13.456;2023-04-12T00:02:12;6.00;69.30
70079;DHT22;57451;52.496;13.456;2023-04-12T00:04:40;5.90;68.80
70079;DHT22;57451;52.496;13.456;2023-04-12T00:07:07;5.90;69.00
70079;DHT22;57451;52.496;13.456;2023-04-12T00:09:36;5.90;69.20
70079;DHT22;57451;52.496;13.456;2023-04-12T00:12:04;5.90;69.40
70079;DHT22;57451;52.496;13.456;2023-04-12T00:14:33;5.90;69.30
70079;DHT22;57451;52.496;13.456;2023-04-12T00:17:00;5.90;69.20
70079;DHT22;57451;52.496;13.456;2023-04-12T00:19:28;5.80;68.90
70079;DHT22;57451;52.496;13.456;2023-04-12T00:21:57;5.80;69.10
70079;DHT22;57451;52.496;13.456;2023-04-12T00:24:24;5.70;69.10
70079;DHT22;57451;52.496;13.456;2023-04-12T00:26:53;5.70;69.40
70079;DHT22;57451;52.496;13.456;2023-04-12T00:29:20;5.70;69.30
70079;DHT22;57451;52.496;13.456;2023-04-12T00:31:49;5.70;69.00
70079;DHT22;57451;52.496;13.456;2023-04-12T00:34:16;5.60;69.30
70079;DHT22;57451;52.496;13.456;2023-04-12T00:36:43;5.60;69.40
70079;DHT22;57451;52.496;13.456;2023-04-12T00:39:10;5.60;69.60
70079;DHT22;57451;52.496;13.456;2023-04-12T00:41:38;5.50;69.80
70079;DHT22;57451;52.496;13.456;2023-04-12T00:44:05;5.50;69.40
70079;DHT22;57451;52.496;13.456;2023-04-12T00:46:34;5.50;69.60
70079;DHT22;57451;52.496;13.456;2023-04-12T00:49:03;5.50;69.80
70079;DHT22;57451;52.496;13.456;2023-04-12T00:51:31;5.50;69.70
70079;DHT22;57451;52.496;13.456;2023-04-12T00:53:59;5.40;69.70
70079;DHT22;57451;52.496;13.456;2023-04-12T00:56:27;5.30;69.90
70079;DHT22;57451;52.496;13.456;2023-04-12T00:58:56;5.40;69.90
70079;DHT22;57451;52.496;13.456;2023-04-12T01:01:24;5.30;70.00
70079;DHT22;57451;52.496;13.456;2023-04-12T01:03:52;5.30;70.10
70079;DHT22;57451;52.496;13.456;2023-04-12T01:06:30;5.30;70.10
70079;DHT22;57451;52.496;13.456;2023-04-12T01:09:05;5.30;70.10
70079;DHT22;57451;52.496;13.456;2023-04-12T01:11:43;5.30;70.20
70079;DHT22;57451;52.496;13.456;2023-04-12T01:14:16;5.20;69.70
70079;DHT22;57451;52.496;13.456;2023-04-12T01:16:49;5.30;69.90
70079;DHT22;57451;52.496;13.456;2023-04-12T01:19:36;5.30;70.10
70079;DHT22;57451;52.496;13.456;2023-04-12T01:22:18;5.30;70.10
70079;DHT22;57451;52.496;13.456;2023-04-12T01:24:58;5.20;70.10
70079;DHT22;57451;52.496;13.456;2023-04-12T01:27:37;5.30;70.00
70079;DHT22;57451;52.496;13.456;2023-04-12T01:30:06;5.20;70.10
70079;DHT22;57451;52.496;13.456;2023-04-12T01:32:35;5.20;70.00
70079;DHT22;57451;52.496;13.456;2023-04-12T01:35:05;5.10;70.30
70079;DHT22;57451;52.496;13.456;2023-04-12T01:37:35;5.10;70.20
70079;DHT22;57451;52.496;13.456;2023-04-12T01:40:03;5.10;70.50
70079;DHT22;57451;52.496;13.456;2023-04-12T01:42:36;5.10;70.40
70079;DHT22;57451;52.496;13.456;2023-04-12T01:45:05;5.10;70.50
70079;DHT22;57451;52.496;13.456;2023-04-12T01:47:32;5.00;70.60
70079;DHT22;57451;52.496;13.456;2023-04-12T01:50:10;5.10;70.60
70079;DHT22;57451;52.496;13.456;2023-04-12T01:52:42;5.00;70.40
70079;DHT22;57451;52.496;13.456;2023-04-12T01:55:13;5.00;70.30
70079;DHT22;57451;52.496;13.456;2023-04-12T01:57:43;5.00;70.50
70079;DHT22;57451;52.496;13.456;2023-04-12T02:00:12;5.00;70.50
70079;DHT22;57451;52.496;13.456;2023-04-12T02:02:40;4.90;70.50
70079;DHT22;57451;52.496;13.456;2023-04-12T02:05:08;4.90;70.60
70079;DHT22;57451;52.496;13.456;2023-04-12T02:07:36;4.90;70.60
70079;DHT22;57451;52.496;13.456;2023-04-12T02:10:04;4.90;70.60
70079;DHT22;57451;52.496;13.456;2023-04-12T02:12:31;4.80;70.60
70079;DHT22;57451;52.496;13.456;2023-04-12T02:15:00;4.80;70.50
70079;DHT22;57451;52.496;13.456;2023-04-12T02:17:27;4.70;70.50
70079;DHT22;57451;52.496;13.456;2023-04-12T02:19:55;4.70;70.60
70079;DHT22;57451;52.496;13.456;2023-04-12T02:22:23;4.60;70.80
70079;DHT22;57451;52.496;13.456;2023-04-12T02:24:51;4.60;70.90
70079;DHT22;57451;52.496;13.456;2023-04-12T02:27:18;4.60;70.90
70079;DHT22;57451;52.496;13.456;2023-04-12T02:29:45;4.60;70.90
70079;DHT22;57451;52.496;13.456;2023-04-12T02:32:14;4.50;70.80
70079;DHT22;57451;52.496;13.456;2023-04-12T02:34:42;4.50;70.90
70079;DHT22;57451;52.496;13.456;2023-04-12T02:37:15;4.50;71.00
70079;DHT22;57451;52.496;13.456;2023-04-12T02:39:43;4.50;71.00
70079;DHT22;57451;52.496;13.456;2023-04-12T02:42:11;4.50;71.00
70079;DHT22;57451;52.496;13.456;2023-04-12T02:44:39;4.50;71.20
70079;DHT22;57451;52.496;13.456;2023-04-12T02:47:13;4.40;71.10
70079;DHT22;57451;52.496;13.456;2023-04-12T02:49:45;4.40;71.20
70079;DHT22;57451;52.496;13.456;2023-04-12T02:52:15;4.30;71.10
70079;DHT22;57451;52.496;13.456;2023-04-12T02:54:59;4.30;71.30
70079;DHT22;57451;52.496;13.456;2023-04-12T02:57:26;4.30;71.40
70079;DHT22;57451;52.496;13.456;2023-04-12T02:59:54;4.30;71.50
70079;DHT22;57451;52.496;13.456;2023-04-12T03:02:31;4.30;71.60
70079;DHT22;57451;52.496;13.456;2023-04-12T03:05:03;4.20;71.60
70079;DHT22;57451;52.496;13.456;2023-04-12T03:07:37;4.20;71.70
70079;DHT22;57451;52.496;13.456;2023-04-12T03:10:07;4.20;71.50
70079;DHT22;57451;52.496;13.456;2023-04-12T03:12:40;4.20;71.60
70079;DHT22;57451;52.496;13.456;2023-04-12T03:15:17;4.20;71.90
70079;DHT22;57451;52.496;13.456;2023-04-12T03:17:48;4.10;71.90
70079;DHT22;57451;52.496;13.456;2023-04-12T03:20:19;4.10;72.00
70079;DHT22;57451;52.496;13.456;2023-04-12T03:23:07;4.10;72.10
70079;DHT22;57451;52.496;13.456;2023-04-12T03:25:37;4.10;72.10
70079;DHT22;57451;52.496;13.456;2023-04-12T03:28:26;4.10;72.00
70079;DHT22;57451;52.496;13.456;2023-04-12T03:30:54;4.10;71.80
70079;DHT22;57451;52.496;13.456;2023-04-12T03:33:26;4.00;72.00
70079;DHT22;57451;52.496;13.456;2023-04-12T03:36:00;4.00;71.90
70079;DHT22;57451;52.496;13.456;2023-04-12T03:38:30;4.00;72.00
70079;DHT22;57451;52.496;13.456;2023-04-12T03:40:58;4.00;72.00
70079;DHT22;57451;52.496;13.456;2023-04-12T03:43:34;3.90;71.90
70079;DHT22;57451;52.496;13.456;2023-04-12T03:46:05;3.90;72.10
70079;DHT22;57451;52.496;13.456;2023-04-12T03:48:34;3.90;71.80
70079;DHT22;57451;52.496;13.456;2023-04-12T03:51:03;3.80;72.10
70079;DHT22;57451;52.496;13.456;2023-04-12T03:53:37;3.80;71.70
70079;DHT22;57451;52.496;13.456;2023-04-12T03:56:06;3.80;72.10
70079;DHT22;57451;52.496;13.456;2023-04-12T03:58:34;3.80;72.40
70079;DHT22;57451;52.496;13.456;2023-04-12T04:01:02;3.80;72.40
70079;DHT22;57451;52.496;13.456;2023-04-12T04:03:35;3.80;72.20
70079;DHT22;57451;52.496;13.456;2023-04-12T04:06:15;3.70;72.30
70079;DHT22;57451;52.496;13.456;2023-04-12T04:08:44;3.70;72.80
70079;DHT22;57451;52.496;13.456;2023-04-12T04:11:12;3.80;72.80
70079;DHT22;57451;52.496;13.456;2023-04-12T04:13:43;3.80;72.60
70079;DHT22;57451;52.496;13.456;2023-04-12T04:16:17;3.70;72.50
70079;DHT22;57451;52.496;13.456;2023-04-12T04:18:55;3.70;72.40
70079;DHT22;57451;52.496;13.456;2023-04-12T04:21:23;3.70;72.30
70079;DHT22;57451;52.496;13.456;2023-04-12T04:23:57;3.70;72.40
70079;DHT22;57451;52.496;13.456;2023-04-12T04:26:25;3.70;72.50
70079;DHT22;57451;52.496;13.456;2023-04-12T04:29:03;3.70;72.50
70079;DHT22;57451;52.496;13.456;2023-04-12T04:31:38;3.60;72.50
70079;DHT22;57451;52.496;13.456;2023-04-12T04:34:08;3.60;72.40
70079;DHT22;57451;52.496;13.456;2023-04-12T04:36:42;3.60;72.70
70079;DHT22;57451;52.496;13.456;2023-04-12T04:39:12;3.50;72.90
70079;DHT22;57451;52.496;13.456;2023-04-12T04:41:42;3.50;73.00
70079;DHT22;57451;52.496;13.456;2023-04-12T04:44:24;3.50;73.00
70079;DHT22;57451;52.496;13.456;2023-04-12T04:46:54;3.50;72.90
70079;DHT22;57451;52.496;13.456;2023-04-12T04:49:25;3.50;73.10
70079;DHT22;57451;52.496;13.456;2023-04-12T04:51:58;3.50;73.10
70079;DHT22;57451;52.496;13.456;2023-04-12T04:54:26;3.50;73.40
70079;DHT22;57451;52.496;13.456;2023-04-12T04:56:53;3.50;73.30
70079;DHT22;57451;52.496;13.456;2023-04-12T04:59:21;3.50;73.20
70079;DHT22;57451;52.496;13.456;2023-04-12T05:01:51;3.40;73.20
70079;DHT22;57451;52.496;13.456;2023-04-12T05:04:19;3.50;73.40
70079;DHT22;57451;52.496;13.456;2023-04-12T05:06:48;3.50;73.30
70079;DHT22;57451;52.496;13.456;2023-04-12T05:09:18;3.50;73.50
70079;DHT22;57451;52.496;13.456;2023-04-12T05:11:54;3.50;73.50
70079;DHT22;57451;52.496;13.456;2023-04-12T05:14:21;3.50;73.50
70079;DHT22;57451;52.496;13.456;2023-04-12T05:16:49;3.40;73.80
70079;DHT22;57451;52.496;13.456;2023-04-12T05:19:17;3.40;73.90
70079;DHT22;57451;52.496;13.456;2023-04-12T05:21:44;3.40;73.90
70079;DHT22;57451;52.496;13.456;2023-04-12T05:24:13;3.40;73.80
70079;DHT22;57451;52.496;13.456;2023-04-12T05:26:43;3.50;74.00
70079;DHT22;57451;52.496;13.456;2023-04-12T05:29:13;3.50;74.10
70079;DHT22;57451;52.496;13.456;2023-04-12T05:31:41;3.50;74.40
70079;DHT22;57451;52.496;13.456;2023-04-12T05:34:16;3.50;74.50
70079;DHT22;57451;52.496;13.456;2023-04-12T05:36:51;3.50;74.50
70079;DHT22;57451;52.496;13.456;2023-04-12T05:39:20;3.60;74.30
70079;DHT22;57451;52.496;13.456;2023-04-12T05:41:49;3.60;74.30
70079;DHT22;57451;52.496;13.456;2023-04-12T05:44:17;3.70;74.30
70079;DHT22;57451;52.496;13.456;2023-04-12T05:46:44;3.70;74.20
70079;DHT22;57451;52.496;13.456;2023-04-12T05:49:11;3.80;74.40
70079;DHT22;57451;52.496;13.456;2023-04-12T05:51:39;3.90;74.30
70079;DHT22;57451;52.496;13.456;2023-04-12T05:54:17;3.90;74.30
70079;DHT22;57451;52.496;13.456;2023-04-12T05:56:49;4.00;74.30
70079;DHT22;57451;52.496;13.456;2023-04-12T05:59:17;4.10;74.10
70079;DHT22;57451;52.496;13.456;2023-04-12T06:01:45;4.10;74.10
70079;DHT22;57451;52.496;13.456;2023-04-12T06:04:13;4.20;74.30
70079;DHT22;57451;52.496;13.456;2023-04-12T06:06:42;4.30;74.20
70079;DHT22;57451;52.496;13.456;2023-04-12T06:09:09;4.30;73.80
70079;DHT22;57451;52.496;13.456;2023-04-12T06:11:37;4.40;73.70
70079;DHT22;57451;52.496;13.456;2023-04-12T06:14:06;4.40;73.60
70079;DHT22;57451;52.496;13.456;2023-04-12T06:16:37;4.50;73.50
70079;DHT22;57451;52.496;13.456;2023-04-12T06:19:07;4.60;73.10
70079;DHT22;57451;52.496;13.456;2023-04-12T06:21:35;4.70;73.00
70079;DHT22;57451;52.496;13.456;2023-04-12T06:24:02;4.70;73.00
70079;DHT22;57451;52.496;13.456;2023-04-12T06:26:30;4.80;72.90
70079;DHT22;57451;52.496;13.456;2023-04-12T06:29:07;4.90;72.80
70079;DHT22;57451;52.496;13.456;2023-04-12T06:31:34;5.00;72.80
70079;DHT22;57451;52.496;13.456;2023-04-12T06:34:02;5.10;72.70
70079;DHT22;57451;52.496;13.456;2023-04-12T06:36:31;5.20;72.40
70079;DHT22;57451;52.496;13.456;2023-04-12T06:38:58;5.20;72.20
70079;DHT22;57451;52.496;13.456;2023-04-12T06:41:25;5.40;72.10
70079;DHT22;57451;52.496;13.456;2023-04-12T06:43:59;5.40;72.00
70079;DHT22;57451;52.496;13.456;2023-04-12T06:46:28;5.50;71.70
70079;DHT22;57451;52.496;13.456;2023-04-12T06:48:55;5.60;71.60
70079;DHT22;57451;52.496;13.456;2023-04-12T06:51:23;5.70;71.30
70079;DHT22;57451;52.496;13.456;2023-04-12T06:53:50;5.80;70.60
70079;DHT22;57451;52.496;13.456;2023-04-12T06:56:18;5.90;69.80
70079;DHT22;57451;52.496;13.456;2023-04-12T06:58:45;6.00;69.00
70079;DHT22;57451;52.496;13.456;2023-04-12T07:01:12;6.10;68.60
70079;DHT22;57451;52.496;13.456;2023-04-12T07:03:42;6.30;68.10
70079;DHT22;57451;52.496;13.456;2023-04-12T07:06:09;6.40;67.60
70079;DHT22;57451;52.496;13.456;2023-04-12T07:08:50;6.50;67.70
70079;DHT22;57451;52.496;13.456;2023-04-12T07:11:18;6.60;67.10
70079;DHT22;57451;52.496;13.456;2023-04-12T07:13:49;6.80;67.10
70079;DHT22;57451;52.496;13.456;2023-04-12T07:16:17;6.80;66.70
70079;DHT22;57451;52.496;13.456;2023-04-12T07:18:46;6.90;66.10
70079;DHT22;57451;52.496;13.456;2023-04-12T07:21:13;7.00;65.90
70079;DHT22;57451;52.496;13.456;2023-04-12T07:23:43;7.10;65.00
70079;DHT22;57451;52.496;13.456;2023-04-12T07:26:10;7.20;65.00
70079;DHT22;57451;52.496;13.456;2023-04-12T07:28:38;7.30;64.80
70079;DHT22;57451;52.496;13.456;2023-04-12T07:31:06;7.40;64.80
70079;DHT22;57451;52.496;13.456;2023-04-12T07:33:33;7.50;64.50
70079;DHT22;57451;52.496;13.456;2023-04-12T07:36:04;7.60;64.30
70079;DHT22;57451;52.496;13.456;2023-04-12T07:38:32;7.80;63.10
70079;DHT22;57451;52.496;13.456;2023-04-12T07:40:59;7.80;63.50
70079;DHT22;57451;52.496;13.456;2023-04-12T07:43:26;7.90;63.60
70079;DHT22;57451;52.496;13.456;2023-04-12T07:45:54;8.00;63.50
70079;DHT22;57451;52.496;13.456;2023-04-12T07:48:22;8.10;63.30
70079;DHT22;57451;52.496;13.456;2023-04-12T07:50:49;8.20;61.40
70079;DHT22;57451;52.496;13.456;2023-04-12T07:53:20;8.30;60.70
70079;DHT22;57451;52.496;13.456;2023-04-12T07:55:47;8.50;60.50
70079;DHT22;57451;52.496;13.456;2023-04-12T07:58:15;8.60;59.50
70079;DHT22;57451;52.496;13.456;2023-04-12T08:00:43;8.70;59.90
70079;DHT22;57451;52.496;13.456;2023-04-12T08:03:10;8.80;59.90
70079;DHT22;57451;52.496;13.456;2023-04-12T08:05:38;8.80;58.60
70079;DHT22;57451;52.496;13.456;2023-04-12T08:08:06;8.90;58.40
70079;DHT22;57451;52.496;13.456;2023-04-12T08:10:36;9.00;57.50
70079;DHT22;57451;52.496;13.456;2023-04-12T08:13:04;9.10;57.80
70079;DHT22;57451;52.496;13.456;2023-04-12T08:15:32;9.10;57.30
70079;DHT22;57451;52.496;13.456;2023-04-12T08:18:00;9.20;57.00
70079;DHT22;57451;52.496;13.456;2023-04-12T08:20:27;9.40;56.10
70079;DHT22;57451;52.496;13.456;2023-04-12T08:22:55;9.50;56.00
70079;DHT22;57451;52.496;13.456;2023-04-12T08:25:22;9.50;56.40
70079;DHT22;57451;52.496;13.456;2023-04-12T08:27:51;9.60;54.80
70079;DHT22;57451;52.496;13.456;2023-04-12T08:30:19;9.70;55.30
70079;DHT22;57451;52.496;13.456;2023-04-12T08:32:46;9.80;54.70
70079;DHT22;57451;52.496;13.456;2023-04-12T08:35:13;9.90;54.10
70079;DHT22;57451;52.496;13.456;2023-04-12T08:37:41;10.00;53.90
70079;DHT22;57451;52.496;13.456;2023-04-12T08:40:08;10.10;53.90
70079;DHT22;57451;52.496;13.456;2023-04-12T08:42:37;10.20;52.70
70079;DHT22;57451;52.496;13.456;2023-04-12T08:45:06;10.20;52.60
70079;DHT22;57451;52.496;13.456;2023-04-12T08:47:36;10.30;51.00
70079;DHT22;57451;52.496;13.456;2023-04-12T08:50:05;10.40;52.40
70079;DHT22;57451;52.496;13.456;2023-04-12T08:52:36;10.50;52.70
70079;DHT22;57451;52.496;13.456;2023-04-12T08:55:05;10.70;49.80
70079;DHT22;57451;52.496;13.456;2023-04-12T08:57:34;10.70;49.90
70079;DHT22;57451;52.496;13.456;2023-04-12T09:00:02;10.80;50.30
70079;DHT22;57451;52.496;13.456;2023-04-12T09:02:32;10.80;52.00
70079;DHT22;57451;52.496;13.456;2023-04-12T09:05:01;10.90;48.20
70079;DHT22;57451;52.496;13.456;2023-04-12T09:07:29;11.00;48.00
70079;DHT22;57451;52.496;13.456;2023-04-12T09:09:57;11.10;48.10
70079;DHT22;57451;52.496;13.456;2023-04-12T09:12:24;11.20;46.70
70079;DHT22;57451;52.496;13.456;2023-04-12T09:15:06;11.30;46.70
70079;DHT22;57451;52.496;13.456;2023-04-12T09:17:36;11.20;44.90
70079;DHT22;57451;52.496;13.456;2023-04-12T09:20:22;11.20;46.60
70079;DHT22;57451;52.496;13.456;2023-04-12T09:22:51;11.30;46.50
70079;DHT22;57451;52.496;13.456;2023-04-12T09:25:35;11.40;45.00
70079;DHT22;57451;52.496;13.456;2023-04-12T09:28:04;11.50;44.50
70079;DHT22;57451;52.496;13.456;2023-04-12T09:30:43;11.50;43.60
70079;DHT22;57451;52.496;13.456;2023-04-12T09:33:12;11.50;44.80
70079;DHT22;57451;52.496;13.456;2023-04-12T09:35:39;11.70;43.20
70079;DHT22;57451;52.496;13.456;2023-04-12T09:38:09;11.70;43.60
70079;DHT22;57451;52.496;13.456;2023-04-12T09:40:37;11.80;44.30
70079;DHT22;57451;52.496;13.456;2023-04-12T09:43:05;11.90;45.20
70079;DHT22;57451;52.496;13.456;2023-04-12T09:45:34;12.00;43.60
70079;DHT22;57451;52.496;13.456;2023-04-12T09:48:04;12.10;44.70
70079;DHT22;57451;52.496;13.456;2023-04-12T09:50:34;12.20;43.00
70079;DHT22;57451;52.496;13.456;2023-04-12T09:53:02;12.30;43.00
70079;DHT22;57451;52.496;13.456;2023-04-12T09:55:30;12.30;42.40
70079;DHT22;57451;52.496;13.456;2023-04-12T09:58:02;12.40;43.10
70079;DHT22;57451;52.496;13.456;2023-04-12T10:00:30;12.60;43.40
70079;DHT22;57451;52.496;13.456;2023-04-12T10:03:00;12.60;42.10
70079;DHT22;57451;52.496;13.456;2023-04-12T10:05:28;12.70;42.60
70079;DHT22;57451;52.496;13.456;2023-04-12T10:08:00;12.80;40.90
70079;DHT22;57451;52.496;13.456;2023-04-12T10:10:29;12.90;41.30
70079;DHT22;57451;52.496;13.456;2023-04-12T10:12:57;12.90;42.10
70079;DHT22;57451;52.496;13.456;2023-04-12T10:15:25;13.00;40.00
70079;DHT22;57451;52.496;13.456;2023-04-12T10:17:56;13.10;41.40
70079;DHT22;57451;52.496;13.456;2023-04-12T10:20:24;13.20;40.80
70079;DHT22;57451;52.496;13.456;2023-04-12T10:22:55;13.20;40.70
70079;DHT22;57451;52.496;13.456;2023-04-12T10:25:28;13.30;39.40
70079;DHT22;57451;52.496;13.456;2023-04-12T10:28:12;13.40;40.20
70079;DHT22;57451;52.496;13.456;2023-04-12T10:30:40;13.60;39.80
70079;DHT22;57451;52.496;13.456;2023-04-12T10:33:12;13.80;38.40
70079;DHT22;57451;52.496;13.456;2023-04-12T10:35:52;14.00;38.60
70079;DHT22;57451;52.496;13.456;2023-04-12T10:38:21;14.20;39.50
70079;DHT22;57451;52.496;13.456;2023-04-12T10:41:14;14.40;38.60
70079;DHT22;57451;52.496;13.456;2023-04-12T10:43:42;14.90;39.50
70079;DHT22;57451;52.496;13.456;2023-04-12T10:46:47;15.30;38.00
70079;DHT22;57451;52.496;13.456;2023-04-12T10:49:15;15.70;36.30
70079;DHT22;57451;52.496;13.456;2023-04-12T10:52:10;16.00;35.30
70079;DHT22;57451;52.496;13.456;2023-04-12T10:54:37;16.20;37.60
70079;DHT22;57451;52.496;13.456;2023-04-12T10:57:42;16.50;35.00
70079;DHT22;57451;52.496;13.456;2023-04-12T11:00:10;17.00;35.90
70079;DHT22;57451;52.496;13.456;2023-04-12T11:03:03;17.40;34.80
70079;DHT22;57451;52.496;13.456;2023-04-12T11:05:56;17.90;34.90
70079;DHT22;57451;52.496;13.456;2023-04-12T11:08:42;18.00;36.20
70079;DHT22;57451;52.496;13.456;2023-04-12T11:11:22;18.40;33.80
70079;DHT22;57451;52.496;13.456;2023-04-12T11:13:55;18.40;32.50
70079;DHT22;57451;52.496;13.456;2023-04-12T11:16:23;18.60;32.50
70079;DHT22;57451;52.496;13.456;2023-04-12T11:18:51;18.90;32.80
70079;DHT22;57451;52.496;13.456;2023-04-12T11:21:19;18.80;32.60
70079;DHT22;57451;52.496;13.456;2023-04-12T11:23:47;19.10;32.40
70079;DHT22;57451;52.496;13.456;2023-04-12T11:26:18;19.30;32.70
70079;DHT22;57451;52.496;13.456;2023-04-12T11:28:46;19.60;32.50
70079;DHT22;57451;52.496;13.456;2023-04-12T11:31:18;19.70;31.40
70079;DHT22;57451;52.496;13.456;2023-04-12T11:33:46;19.70;32.20
70079;DHT22;57451;52.496;13.456;2023-04-12T11:36:13;19.70;30.70
70079;DHT22;57451;52.496;13.456;2023-04-12T11:38:42;19.80;31.50
70079;DHT22;57451;52.496;13.456;2023-04-12T11:41:13;20.10;30.20
70079;DHT22;57451;52.496;13.456;2023-04-12T11:43:41;19.80;30.80
70079;DHT22;57451;52.496;13.456;2023-04-12T11:46:08;20.20;32.10
70079;DHT22;57451;52.496;13.456;2023-04-12T11:48:37;20.50;30.50
70079;DHT22;57451;52.496;13.456;2023-04-12T11:51:18;20.30;31.40
70079;DHT22;57451;52.496;13.456;2023-04-12T11:53:45;20.60;30.80
70079;DHT22;57451;52.496;13.456;2023-04-12T11:56:12;20.70;30.90
70079;DHT22;57451;52.496;13.456;2023-04-12T11:58:40;20.90;30.90
70079;DHT22;57451;52.496;13.456;2023-04-12T12:01:09;20.90;30.00
70079;DHT22;57451;52.496;13.456;2023-04-12T12:03:38;21.20;30.90
70079;DHT22;57451;52.496;13.456;2023-04-12T12:06:07;21.70;29.70
70079;DHT22;57451;52.496;13.456;2023-04-12T12:08:35;21.50;29.10
70079;DHT22;57451;52.496;13.456;2023-04-12T12:11:03;21.20;31.30
70079;DHT22;57451;52.496;13.456;2023-04-12T12:13:45;21.30;29.00
70079;DHT22;57451;52.496;13.456;2023-04-12T12:16:13;21.00;29.90
70079;DHT22;57451;52.496;13.456;2023-04-12T12:18:43;20.90;29.60
70079;DHT22;57451;52.496;13.456;2023-04-12T12:21:12;20.40;30.80
70079;DHT22;57451;52.496;13.456;2023-04-12T12:23:42;20.30;31.40
70079;DHT22;57451;52.496;13.456;2023-04-12T12:26:09;20.00;30.70
70079;DHT22;57451;52.496;13.456;2023-04-12T12:28:49;19.40;31.60
70079;DHT22;57451;52.496;13.456;2023-04-12T12:31:18;19.20;31.30
70079;DHT22;57451;52.496;13.456;2023-04-12T12:33:48;19.10;31.40
70079;DHT22;57451;52.496;13.456;2023-04-12T12:36:17;18.90;31.40
70079;DHT22;57451;52.496;13.456;2023-04-12T12:38:45;18.50;31.90
70079;DHT22;57451;52.496;13.456;2023-04-12T12:41:16;18.20;32.80
70079;DHT22;57451;52.496;13.456;2023-04-12T12:43:44;18.10;32.90
70079;DHT22;57451;52.496;13.456;2023-04-12T12:46:12;18.10;33.60
70079;DHT22;57451;52.496;13.456;2023-04-12T12:48:39;18.10;33.40
70079;DHT22;57451;52.496;13.456;2023-04-12T12:51:09;18.20;32.90
70079;DHT22;57451;52.496;13.456;2023-04-12T12:53:38;18.00;32.80
70079;DHT22;57451;52.496;13.456;2023-04-12T12:56:07;17.90;33.10
70079;DHT22;57451;52.496;13.456;2023-04-12T12:58:36;17.80;33.90
70079;DHT22;57451;52.496;13.456;2023-04-12T13:01:07;17.70;33.30
70079;DHT22;57451;52.496;13.456;2023-04-12T13:03:34;17.50;33.80
70079;DHT22;57451;52.496;13.456;2023-04-12T13:06:02;17.40;34.70
70079;DHT22;57451;52.496;13.456;2023-04-12T13:08:30;17.30;33.70
70079;DHT22;57451;52.496;13.456;2023-04-12T13:11:03;17.20;33.60
70079;DHT22;57451;52.496;13.456;2023-04-12T13:13:31;17.10;33.10
70079;DHT22;57451;52.496;13.456;2023-04-12T13:15:58;17.00;33.70
70079;DHT22;57451;52.496;13.456;2023-04-12T13:18:25;16.90;34.30
70079;DHT22;57451;52.496;13.456;2023-04-12T13:20:53;16.80;34.10
70079;DHT22;57451;52.496;13.456;2023-04-12T13:23:20;16.70;34.20
70079;DHT22;57451;52.496;13.456;2023-04-12T13:25:48;16.60;34.60
70079;DHT22;57451;52.496;13.456;2023-04-12T13:28:15;16.70;34.30
70079;DHT22;57451;52.496;13.456;2023-04-12T13:30:43;16.70;35.50
70079;DHT22;57451;52.496;13.456;2023-04-12T13:33:10;16.80;34.30
70079;DHT22;57451;52.496;13.456;2023-04-12T13:35:43;16.70;34.20
70079;DHT22;57451;52.496;13.456;2023-04-12T13:38:11;16.70;35.00
70079;DHT22;57451;52.496;13.456;2023-04-12T13:40:38;16.70;34.40
70079;DHT22;57451;52.496;13.456;2023-04-12T13:43:07;16.70;34.80
70079;DHT22;57451;52.496;13.456;2023-04-12T13:45:34;16.70;34.30
70079;DHT22;57451;52.496;13.456;2023-04-12T13:48:02;16.70;34.90
70079;DHT22;57451;52.496;13.456;2023-04-12T13:50:29;16.50;34.30
70079;DHT22;57451;52.496;13.456;2023-04-12T13:52:57;16.40;35.60
70079;DHT22;57451;52.496;13.456;2023-04-12T13:55:24;16.40;35.80
70079;DHT22;57451;52.496;13.456;2023-04-12T13:57:51;16.50;35.70
70079;DHT22;57451;52.496;13.456;2023-04-12T14:00:20;16.60;36.80
70079;DHT22;57451;52.496;13.456;2023-04-12T14:02:47;16.70;36.10
70079;DHT22;57451;52.496;13.456;2023-04-12T14:05:15;16.60;35.40
70079;DHT22;57451;52.496;13.456;2023-04-12T14:07:42;16.40;35.10
70079;DHT22;57451;52.496;13.456;2023-04-12T14:10:09;16.30;35.40
70079;DHT22;57451;52.496;13.456;2023-04-12T14:12:37;16.20;36.90
70079;DHT22;57451;52.496;13.456;2023-04-12T14:15:05;16.10;35.80
70079;DHT22;57451;52.496;13.456;2023-04-12T14:17:34;16.10;36.10
70079;DHT22;57451;52.496;13.456;2023-04-12T14:20:02;15.90;36.80
70079;DHT22;57451;52.496;13.456;2023-04-12T14:22:32;15.80;36.60
70079;DHT22;57451;52.496;13.456;2023-04-12T14:24:59;15.80;36.70
70079;DHT22;57451;52.496;13.456;2023-04-12T14:27:26;15.80;36.60
70079;DHT22;57451;52.496;13.456;2023-04-12T14:29:54;15.60;36.80
70079;DHT22;57451;52.496;13.456;2023-04-12T14:32:21;15.60;37.60
70079;DHT22;57451;52.496;13.456;2023-04-12T14:34:50;15.60;37.80
70079;DHT22;57451;52.496;13.456;2023-04-12T14:37:17;15.50;38.20
70079;DHT22;57451;52.496;13.456;2023-04-12T14:39:44;15.50;37.80
70079;DHT22;57451;52.496;13.456;2023-04-12T14:42:12;15.50;38.30
70079;DHT22;57451;52.496;13.456;2023-04-12T14:44:39;15.50;38.30
70079;DHT22;57451;52.496;13.456;2023-04-12T14:47:06;15.30;38.20
70079;DHT22;57451;52.496;13.456;2023-04-12T14:49:33;15.20;37.60
70079;DHT22;57451;52.496;13.456;2023-04-12T14:52:02;15.10;37.60
70079;DHT22;57451;52.496;13.456;2023-04-12T14:54:30;15.10;38.10
70079;DHT22;57451;52.496;13.456;2023-04-12T14:56:58;15.00;38.70
70079;DHT22;57451;52.496;13.456;2023-04-12T14:59:25;14.90;38.00
70079;DHT22;57451;52.496;13.456;2023-04-12T15:01:56;14.70;38.40
70079;DHT22;57451;52.496;13.456;2023-04-12T15:04:25;14.60;39.00
70079;DHT22;57451;52.496;13.456;2023-04-12T15:06:52;14.60;38.40
70079;DHT22;57451;52.496;13.456;2023-04-12T15:09:21;14.50;38.70
70079;DHT22;57451;52.496;13.456;2023-04-12T15:11:49;14.50;39.00
70079;DHT22;57451;52.496;13.456;2023-04-12T15:14:21;14.50;40.00
70079;DHT22;57451;52.496;13.456;2023-04-12T15:16:49;14.40;40.20
70079;DHT22;57451;52.496;13.456;2023-04-12T15:19:16;14.20;40.70
70079;DHT22;57451;52.496;13.456;2023-04-12T15:21:49;14.10;41.80
70079;DHT22;57451;52.496;13.456;2023-04-12T15:24:23;14.00;42.70
70079;DHT22;57451;52.496;13.456;2023-04-12T15:26:51;13.90;43.60
70079;DHT22;57451;52.496;13.456;2023-04-12T15:29:20;14.00;44.10
70079;DHT22;57451;52.496;13.456;2023-04-12T15:31:48;14.00;44.40
70079;DHT22;57451;52.496;13.456;2023-04-12T15:34:16;13.90;45.40
70079;DHT22;57451;52.496;13.456;2023-04-12T15:36:44;13.80;46.60
70079;DHT22;57451;52.496;13.456;2023-04-12T15:39:12;13.80;46.70
70079;DHT22;57451;52.496;13.456;2023-04-12T15:41:42;13.80;47.20
70079;DHT22;57451;52.496;13.456;2023-04-12T15:44:10;13.60;48.10